Pequea, PA

18:57 EST je la 05an de februaro 2016 (GMT -0500)
Mt. Nebo | | Change Station
CLOSE
Current Station
Personaj Veter-Stacioj
Location: Holtwood, PA
Alteco: 843 ft
Najbaraj veter-stacioj

Elev 843 ft 39.88 °N, 76.32 °W | Updated 0 second ago

Parte nuba
Parte nuba
33.8 °F
Sentas kiel 30 °F
N
4.0
Vento Varianta Vento from NNOk
Gusts 5.4 mej/h

hodiaŭ
High -- | Low -- °F
--% Ebla precip.
hieraŭ
High -- | Low -- °F
Precip. -- co
Aerpremo 30.33 co
Vidodistanco 10.0 mejloj
Nuboj Sennuba
Venta
kvazaŭtemperaturo
30 °F
Rosopunkto 21 °F
Humido 59%
Pluvokvanto 0.02 co
Neĝprofundo Not available.
7:10 AM 5:28 PM
Malkreskanta Lunarko, 9% visible
METAR KLNS 052353Z 27006KT 10SM CLR 01/M06 A3032 RMK AO2 SLP271 60000 T00061061 10033 20006 51027
Aerpremo 30.33 co
Vidodistanco 10.0 mejloj
Nuboj Sennuba
Venta
kvazaŭtemperaturo
30 °F
Rosopunkto 21 °F
Humido 59%
Pluvokvanto 0.02 co
Neĝprofundo Not available.
7:10 AM 5:28 PM
Malkreskanta Lunarko, 9% visible
METAR KLNS 052353Z 27006KT 10SM CLR 01/M06 A3032 RMK AO2 SLP271 60000 T00061061 10033 20006 51027

10-Day Weather Forecast

Almanac

Astronomio

Feb. 05, 2016 Leviĝo Subiro
Aktuala tempo
Civila krepusko
Naŭtika krepusko
Astronomia krepusko
Luno
Daŭro de videbla lumo
Daŭro de tago
Tomorrow will be .
, % of the Moon is Illuminated

Hodiaŭaj ekstremaĵoj

State Highs State Lows

Community

WunderPhotos

Upload Photos

1,890,880 photos uploaded!

WunderBlog® & News

Nearby

Aerkvalito

  Aerkvalito Aerkvalita indico Poluanto
Not available.

Neĝa profundeco

Station Depth Alteco

Earthquake Activity

Urbo Distance Mag. Time & Date
Minimum magnitude displayed is 2.5.

Coastal Water Temperatures

Loko Temperaturo

Stations

Najbaraj veter-stacioj

Loko de stacio Temp Venta
kvazaŭtemperaturo
Rosopunkto Humido Vento Precip. Elev Ĝisdatigita je Tipo
                   

Watches & Warnings

There are currently no watches in effect.